sensor_id;sensor_type;location;lat;lon;timestamp;P1;durP1;ratioP1;P2;durP2;ratioP2
29414;SDS011;20303;48.302;11.914;2023-07-13T00:07:07;5.47;;;3.58;;
29414;SDS011;20303;48.302;11.914;2023-07-13T00:17:09;4.95;;;3.60;;
29414;SDS011;20303;48.302;11.914;2023-07-13T00:27:10;4.20;;;3.33;;
29414;SDS011;20303;48.302;11.914;2023-07-13T00:37:11;5.40;;;3.50;;
29414;SDS011;20303;48.302;11.914;2023-07-13T00:47:12;7.43;;;3.50;;
29414;SDS011;20303;48.302;11.914;2023-07-13T00:57:15;6.05;;;3.30;;
29414;SDS011;20303;48.302;11.914;2023-07-13T01:07:18;5.78;;;3.20;;
29414;SDS011;20303;48.302;11.914;2023-07-13T01:17:19;4.15;;;3.20;;
29414;SDS011;20303;48.302;11.914;2023-07-13T01:27:21;3.83;;;3.03;;
29414;SDS011;20303;48.302;11.914;2023-07-13T01:37:25;4.45;;;3.00;;
29414;SDS011;20303;48.302;11.914;2023-07-13T01:47:27;4.95;;;2.90;;
29414;SDS011;20303;48.302;11.914;2023-07-13T01:57:28;5.07;;;2.90;;
29414;SDS011;20303;48.302;11.914;2023-07-13T02:07:30;5.15;;;2.70;;
29414;SDS011;20303;48.302;11.914;2023-07-13T02:17:31;4.43;;;2.95;;
29414;SDS011;20303;48.302;11.914;2023-07-13T02:27:33;6.43;;;2.95;;
29414;SDS011;20303;48.302;11.914;2023-07-13T02:37:34;4.00;;;2.90;;
29414;SDS011;20303;48.302;11.914;2023-07-13T02:47:36;5.53;;;2.63;;
29414;SDS011;20303;48.302;11.914;2023-07-13T02:57:37;5.38;;;2.90;;
29414;SDS011;20303;48.302;11.914;2023-07-13T03:07:38;3.58;;;3.10;;
29414;SDS011;20303;48.302;11.914;2023-07-13T03:17:39;5.28;;;3.20;;
29414;SDS011;20303;48.302;11.914;2023-07-13T03:27:40;5.38;;;3.00;;
29414;SDS011;20303;48.302;11.914;2023-07-13T03:37:41;6.53;;;3.50;;
29414;SDS011;20303;48.302;11.914;2023-07-13T03:47:43;6.05;;;4.03;;
29414;SDS011;20303;48.302;11.914;2023-07-13T03:57:44;6.38;;;4.00;;
29414;SDS011;20303;48.302;11.914;2023-07-13T04:07:45;5.25;;;3.90;;
29414;SDS011;20303;48.302;11.914;2023-07-13T04:17:46;5.95;;;4.35;;
29414;SDS011;20303;48.302;11.914;2023-07-13T04:27:47;4.97;;;4.05;;
29414;SDS011;20303;48.302;11.914;2023-07-13T04:37:49;6.53;;;4.18;;
29414;SDS011;20303;48.302;11.914;2023-07-13T04:47:50;6.30;;;4.18;;
29414;SDS011;20303;48.302;11.914;2023-07-13T04:57:51;5.80;;;3.80;;
29414;SDS011;20303;48.302;11.914;2023-07-13T05:07:52;9.07;;;3.80;;
29414;SDS011;20303;48.302;11.914;2023-07-13T05:17:54;7.75;;;3.92;;
29414;SDS011;20303;48.302;11.914;2023-07-13T05:27:55;8.63;;;4.00;;
29414;SDS011;20303;48.302;11.914;2023-07-13T05:37:56;7.38;;;3.45;;
29414;SDS011;20303;48.302;11.914;2023-07-13T05:47:57;7.55;;;4.03;;
29414;SDS011;20303;48.302;11.914;2023-07-13T05:57:58;8.93;;;4.20;;
29414;SDS011;20303;48.302;11.914;2023-07-13T06:08:00;5.93;;;3.47;;
29414;SDS011;20303;48.302;11.914;2023-07-13T06:18:01;7.03;;;3.45;;
29414;SDS011;20303;48.302;11.914;2023-07-13T06:28:02;7.07;;;3.40;;
29414;SDS011;20303;48.302;11.914;2023-07-13T06:38:03;6.22;;;3.63;;
29414;SDS011;20303;48.302;11.914;2023-07-13T06:48:04;6.88;;;3.45;;
29414;SDS011;20303;48.302;11.914;2023-07-13T06:58:06;7.70;;;3.65;;
29414;SDS011;20303;48.302;11.914;2023-07-13T07:08:07;6.70;;;3.17;;
29414;SDS011;20303;48.302;11.914;2023-07-13T07:18:08;4.68;;;3.15;;
29414;SDS011;20303;48.302;11.914;2023-07-13T07:28:09;6.47;;;3.00;;
29414;SDS011;20303;48.302;11.914;2023-07-13T07:38:10;5.70;;;3.00;;
29414;SDS011;20303;48.302;11.914;2023-07-13T07:48:11;4.55;;;2.53;;
29414;SDS011;20303;48.302;11.914;2023-07-13T07:58:12;4.40;;;2.65;;
29414;SDS011;20303;48.302;11.914;2023-07-13T08:08:13;6.57;;;2.58;;
29414;SDS011;20303;48.302;11.914;2023-07-13T08:18:15;5.18;;;2.53;;
29414;SDS011;20303;48.302;11.914;2023-07-13T08:28:16;5.72;;;2.40;;
29414;SDS011;20303;48.302;11.914;2023-07-13T08:38:17;4.85;;;2.30;;
29414;SDS011;20303;48.302;11.914;2023-07-13T08:48:20;6.68;;;2.70;;
29414;SDS011;20303;48.302;11.914;2023-07-13T08:58:27;6.22;;;2.45;;
29414;SDS011;20303;48.302;11.914;2023-07-13T09:18:49;3.80;;;2.40;;
29414;SDS011;20303;48.302;11.914;2023-07-13T09:28:53;4.95;;;2.00;;
29414;SDS011;20303;48.302;11.914;2023-07-13T09:39:25;4.28;;;1.70;;
29414;SDS011;20303;48.302;11.914;2023-07-13T09:49:35;2.47;;;1.77;;
29414;SDS011;20303;48.302;11.914;2023-07-13T09:59:40;5.40;;;1.80;;
29414;SDS011;20303;48.302;11.914;2023-07-13T10:09:46;4.15;;;1.90;;
29414;SDS011;20303;48.302;11.914;2023-07-13T10:19:47;5.07;;;1.90;;
29414;SDS011;20303;48.302;11.914;2023-07-13T10:29:51;2.53;;;1.70;;
29414;SDS011;20303;48.302;11.914;2023-07-13T10:40:04;4.15;;;1.95;;
29414;SDS011;20303;48.302;11.914;2023-07-13T10:50:08;4.15;;;2.15;;
29414;SDS011;20303;48.302;11.914;2023-07-13T11:00:16;4.10;;;1.90;;
29414;SDS011;20303;48.302;11.914;2023-07-13T11:10:46;4.50;;;2.00;;
29414;SDS011;20303;48.302;11.914;2023-07-13T11:20:46;5.20;;;2.20;;
29414;SDS011;20303;48.302;11.914;2023-07-13T11:40:55;19.42;;;5.72;;
29414;SDS011;20303;48.302;11.914;2023-07-13T11:51:00;6.50;;;2.67;;
29414;SDS011;20303;48.302;11.914;2023-07-13T12:01:04;5.43;;;2.47;;
29414;SDS011;20303;48.302;11.914;2023-07-13T12:11:11;4.03;;;2.20;;
29414;SDS011;20303;48.302;11.914;2023-07-13T12:21:17;4.20;;;2.40;;
29414;SDS011;20303;48.302;11.914;2023-07-13T12:41:26;2.92;;;2.00;;
29414;SDS011;20303;48.302;11.914;2023-07-13T12:51:27;3.45;;;2.15;;
29414;SDS011;20303;48.302;11.914;2023-07-13T13:01:29;3.50;;;2.00;;
29414;SDS011;20303;48.302;11.914;2023-07-13T13:11:32;2.60;;;2.00;;
29414;SDS011;20303;48.302;11.914;2023-07-13T13:21:34;3.95;;;2.20;;
29414;SDS011;20303;48.302;11.914;2023-07-13T13:31:35;3.33;;;2.10;;
29414;SDS011;20303;48.302;11.914;2023-07-13T13:41:36;2.95;;;2.05;;
29414;SDS011;20303;48.302;11.914;2023-07-13T13:51:37;4.47;;;2.30;;
29414;SDS011;20303;48.302;11.914;2023-07-13T14:01:39;3.13;;;2.08;;
29414;SDS011;20303;48.302;11.914;2023-07-13T14:11:41;5.35;;;2.33;;
29414;SDS011;20303;48.302;11.914;2023-07-13T14:21:42;3.97;;;2.05;;
29414;SDS011;20303;48.302;11.914;2023-07-13T14:31:43;3.35;;;1.90;;
29414;SDS011;20303;48.302;11.914;2023-07-13T14:41:44;4.10;;;2.05;;
29414;SDS011;20303;48.302;11.914;2023-07-13T14:51:46;2.88;;;2.05;;
29414;SDS011;20303;48.302;11.914;2023-07-13T15:01:47;4.70;;;2.15;;
29414;SDS011;20303;48.302;11.914;2023-07-13T15:11:49;2.78;;;2.00;;
29414;SDS011;20303;48.302;11.914;2023-07-13T15:21:50;3.47;;;2.10;;
29414;SDS011;20303;48.302;11.914;2023-07-13T15:31:52;3.22;;;2.15;;
29414;SDS011;20303;48.302;11.914;2023-07-13T15:41:53;4.03;;;2.00;;
29414;SDS011;20303;48.302;11.914;2023-07-13T15:51:54;3.97;;;2.58;;
29414;SDS011;20303;48.302;11.914;2023-07-13T16:01:56;2.80;;;2.10;;
29414;SDS011;20303;48.302;11.914;2023-07-13T16:11:57;4.88;;;2.33;;
29414;SDS011;20303;48.302;11.914;2023-07-13T16:21:58;3.47;;;2.30;;
29414;SDS011;20303;48.302;11.914;2023-07-13T16:42:11;2.88;;;2.00;;
29414;SDS011;20303;48.302;11.914;2023-07-13T16:52:13;4.05;;;2.10;;
29414;SDS011;20303;48.302;11.914;2023-07-13T17:12:23;3.35;;;2.20;;
29414;SDS011;20303;48.302;11.914;2023-07-13T17:22:25;5.53;;;2.30;;
29414;SDS011;20303;48.302;11.914;2023-07-13T17:32:27;4.45;;;2.08;;
29414;SDS011;20303;48.302;11.914;2023-07-13T17:42:28;5.38;;;2.10;;
29414;SDS011;20303;48.302;11.914;2023-07-13T17:52:30;6.82;;;2.33;;
29414;SDS011;20303;48.302;11.914;2023-07-13T18:02:31;3.47;;;2.03;;
29414;SDS011;20303;48.302;11.914;2023-07-13T18:12:32;3.67;;;2.10;;
29414;SDS011;20303;48.302;11.914;2023-07-13T18:22:34;3.63;;;2.20;;
29414;SDS011;20303;48.302;11.914;2023-07-13T18:32:36;2.67;;;1.90;;
29414;SDS011;20303;48.302;11.914;2023-07-13T18:42:41;3.22;;;2.20;;
29414;SDS011;20303;48.302;11.914;2023-07-13T18:52:44;5.13;;;2.10;;
29414;SDS011;20303;48.302;11.914;2023-07-13T19:02:46;3.75;;;2.25;;
29414;SDS011;20303;48.302;11.914;2023-07-13T19:12:48;3.67;;;2.47;;
29414;SDS011;20303;48.302;11.914;2023-07-13T19:22:56;5.53;;;2.70;;
29414;SDS011;20303;48.302;11.914;2023-07-13T19:32:59;7.63;;;2.83;;
29414;SDS011;20303;48.302;11.914;2023-07-13T19:43:00;5.25;;;2.60;;
29414;SDS011;20303;48.302;11.914;2023-07-13T19:53:01;4.15;;;2.70;;
29414;SDS011;20303;48.302;11.914;2023-07-13T20:03:03;5.72;;;2.78;;
29414;SDS011;20303;48.302;11.914;2023-07-13T20:13:04;4.93;;;2.63;;
29414;SDS011;20303;48.302;11.914;2023-07-13T20:23:16;5.43;;;2.60;;
29414;SDS011;20303;48.302;11.914;2023-07-13T20:33:19;6.25;;;2.60;;
29414;SDS011;20303;48.302;11.914;2023-07-13T20:43:22;5.32;;;2.92;;
29414;SDS011;20303;48.302;11.914;2023-07-13T20:53:24;6.65;;;3.42;;
29414;SDS011;20303;48.302;11.914;2023-07-13T21:03:26;5.15;;;2.80;;
29414;SDS011;20303;48.302;11.914;2023-07-13T21:13:27;7.88;;;2.85;;
29414;SDS011;20303;48.302;11.914;2023-07-13T21:23:33;5.88;;;2.67;;
29414;SDS011;20303;48.302;11.914;2023-07-13T21:33:34;6.45;;;2.65;;
29414;SDS011;20303;48.302;11.914;2023-07-13T21:43:36;5.97;;;2.80;;
29414;SDS011;20303;48.302;11.914;2023-07-13T21:53:37;5.18;;;2.90;;
29414;SDS011;20303;48.302;11.914;2023-07-13T22:03:38;6.03;;;2.92;;
29414;SDS011;20303;48.302;11.914;2023-07-13T22:13:40;5.32;;;2.78;;
29414;SDS011;20303;48.302;11.914;2023-07-13T22:23:41;3.47;;;2.78;;
29414;SDS011;20303;48.302;11.914;2023-07-13T22:33:42;4.57;;;2.90;;
29414;SDS011;20303;48.302;11.914;2023-07-13T22:43:44;3.60;;;2.78;;
29414;SDS011;20303;48.302;11.914;2023-07-13T22:53:45;3.97;;;2.70;;
29414;SDS011;20303;48.302;11.914;2023-07-13T23:03:46;6.25;;;3.30;;
29414;SDS011;20303;48.302;11.914;2023-07-13T23:13:48;3.67;;;2.78;;
29414;SDS011;20303;48.302;11.914;2023-07-13T23:23:50;3.47;;;2.70;;
29414;SDS011;20303;48.302;11.914;2023-07-13T23:33:52;4.25;;;3.10;;
29414;SDS011;20303;48.302;11.914;2023-07-13T23:43:55;3.40;;;2.80;;
29414;SDS011;20303;48.302;11.914;2023-07-13T23:53:56;4.45;;;3.08;;
